Time;durP1;ratioP1;P1;durP2;ratioP2;P2;SDS_P1;SDS_P2;PMS_P1;PMS_P2;Temp;Humidity;BMP_temperature;BMP_pressure;BME280_temperature;BME280_humidity;BME280_pressure;Samples;Min_cycle;Max_cycle;Signal;HPM_P1;HPM_P2
2023/03/08 00:02:20;;;;;;;;;;;;;;;5.11;97.59;96492.09;5079038;28;19988;-67
2023/03/08 00:04:47;;;;;;;;;;;;;;;5.02;98.94;96491.00;5078380;28;19952;-67
2023/03/08 00:07:13;;;;;;;;;;;;;;;5.06;98.64;96490.25;5059766;28;20007;-67
2023/03/08 00:09:40;;;;;;;;;;;;;;;4.93;98.84;96485.44;5075426;28;19996;-66
2023/03/08 00:12:07;;;;;;;;;;;;;;;5.02;98.50;96489.16;5075845;28;19956;-65
2023/03/08 00:14:35;;;;;;;;;;;;;;;5.03;98.58;96474.91;5078828;28;19983;-65
2023/03/08 00:17:02;;;;;;;;;;;;;;;4.94;99.72;96486.25;5078757;28;19960;-68
2023/03/08 00:19:28;;;;;;;;;;;;;;;4.99;98.77;96502.91;5060896;28;20463;-68
2023/03/08 00:21:54;;;;;;;;;;;;;;;4.95;100.00;96493.94;5078859;28;19929;-66
2023/03/08 00:24:21;;;;;;;;;;;;;;;5.05;99.33;96496.59;5076259;28;19996;-67
2023/03/08 00:26:47;;;;;;;;;;;;;;;4.98;99.43;96493.41;5075380;28;19998;-64
2023/03/08 00:29:13;;;;;;;;;;;;;;;4.92;100.00;96494.44;5076613;28;19992;-67
2023/03/08 00:31:41;;;;;;;;;;;;;;;4.99;100.00;96495.00;5081597;28;19925;-67
2023/03/08 00:34:07;;;;;;;;;;;;;;;4.95;100.00;96486.00;5075722;28;19976;-66
2023/03/08 00:36:34;;;;;;;;;;;;;;;4.83;100.00;96493.34;5060302;28;19951;-68
2023/03/08 00:39:00;;;;;;;;;;;;;;;4.75;100.00;96493.88;5078373;28;19963;-67
2023/03/08 00:41:27;;;;;;;;;;;;;;;4.98;100.00;96503.19;5075012;28;19921;-68
2023/03/08 00:43:53;;;;;;;;;;;;;;;5.02;99.64;96496.31;5074883;28;20027;-66
2023/03/08 00:46:19;;;;;;;;;;;;;;;4.81;100.00;96496.28;5076984;28;20024;-66
2023/03/08 00:48:47;;;;;;;;;;;;;;;5.01;100.00;96502.69;5078256;28;19996;-66
2023/03/08 00:51:15;;;;;;;;;;;;;;;5.01;100.00;96507.97;5076691;28;19951;-67
2023/03/08 00:53:41;;;;;;;;;;;;;;;5.08;100.00;96503.19;5075015;28;19964;-66
2023/03/08 00:56:07;;;;;;;;;;;;;;;5.02;100.00;96507.69;5075123;28;19981;-65
2023/03/08 00:58:34;;;;;;;;;;;;;;;5.07;99.93;96504.28;5077857;28;19984;-67
2023/03/08 01:01:00;;;;;;;;;;;;;;;5.00;99.65;96495.78;5081624;28;19996;-65
2023/03/08 01:03:26;;;;;;;;;;;;;;;4.90;100.00;96496.56;5057043;28;19939;-67
2023/03/08 01:05:55;;;;;;;;;;;;;;;4.94;99.65;96497.63;5074277;28;19925;-66
2023/03/08 01:08:22;;;;;;;;;;;;;;;5.04;100.00;96489.72;5076710;28;20011;-65
2023/03/08 01:10:49;;;;;;;;;;;;;;;5.06;99.46;96487.59;5077788;28;19924;-67
2023/03/08 01:13:16;;;;;;;;;;;;;;;5.06;99.55;96490.25;5057843;28;19924;-68
2023/03/08 01:15:42;;;;;;;;;;;;;;;5.06;98.68;96484.16;5073439;28;19929;-66
2023/03/08 01:18:09;;;;;;;;;;;;;;;5.05;98.73;96482.56;5075111;28;19971;-66
2023/03/08 01:20:35;;;;;;;;;;;;;;;4.97;98.49;96481.25;5077565;28;19971;-67
2023/03/08 01:23:03;;;;;;;;;;;;;;;4.81;100.00;96471.66;5077651;28;20000;-64
2023/03/08 01:25:30;;;;;;;;;;;;;;;4.85;100.00;96476.19;5048208;28;19929;-63
2023/03/08 01:27:56;;;;;;;;;;;;;;;5.00;99.67;96472.78;5066040;28;19960;-66
2023/03/08 01:30:23;;;;;;;;;;;;;;;5.07;99.74;96475.16;5072101;28;20541;-66
2023/03/08 01:32:49;;;;;;;;;;;;;;;4.94;99.36;96471.19;5077636;28;19947;-63
2023/03/08 01:35:15;;;;;;;;;;;;;;;4.93;99.42;96474.88;5075882;28;19928;-66
2023/03/08 01:37:42;;;;;;;;;;;;;;;5.01;99.60;96481.50;5072721;28;19988;-66
2023/03/08 01:40:11;;;;;;;;;;;;;;;4.94;98.65;96480.97;5074610;28;19991;-66
2023/03/08 01:42:39;;;;;;;;;;;;;;;4.90;99.33;96480.69;5077728;28;19987;-68
2023/03/08 01:45:06;;;;;;;;;;;;;;;4.97;99.18;96481.25;5076779;28;19928;-66
2023/03/08 01:47:34;;;;;;;;;;;;;;;5.02;99.05;96478.59;5073542;28;19925;-65
2023/03/08 01:50:03;;;;;;;;;;;;;;;4.77;100.00;96470.59;5073562;28;19925;-66
2023/03/08 01:52:31;;;;;;;;;;;;;;;4.76;100.00;96463.75;5073310;28;19984;-66
2023/03/08 01:54:59;;;;;;;;;;;;;;;4.81;100.00;96461.09;5073674;28;19931;-67
2023/03/08 01:57:29;;;;;;;;;;;;;;;4.83;100.00;96469.56;5076527;28;20699;-64
2023/03/08 01:59:57;;;;;;;;;;;;;;;4.77;100.00;96470.59;5058840;28;20014;-67
2023/03/08 02:02:26;;;;;;;;;;;;;;;4.85;100.00;96472.75;5076609;28;19966;-66
2023/03/08 02:04:52;;;;;;;;;;;;;;;4.82;100.00;96470.63;5077263;28;19947;-65
2023/03/08 02:07:19;;;;;;;;;;;;;;;4.92;100.00;96473.28;5075089;28;19979;-66
2023/03/08 02:09:46;;;;;;;;;;;;;;;4.79;99.96;96471.16;5073911;28;19924;-66
2023/03/08 02:12:13;;;;;;;;;;;;;;;4.90;99.01;96464.81;5074606;28;19991;-65
2023/03/08 02:14:42;;;;;;;;;;;;;;;4.94;98.69;96476.47;5076922;28;19940;-66
2023/03/08 02:17:08;;;;;;;;;;;;;;;4.90;98.92;96470.91;5076118;28;20052;-65
2023/03/08 02:19:41;;;;;;;;;;;;;;;5.01;99.50;96461.16;5073307;28;20007;-67
2023/03/08 02:22:08;;;;;;;;;;;;;;;5.01;98.45;96466.44;5073769;28;19992;-64
2023/03/08 02:24:36;;;;;;;;;;;;;;;5.03;97.98;96468.81;5076743;28;20011;-66
2023/03/08 02:27:05;;;;;;;;;;;;;;;5.05;97.74;96459.53;5078434;28;19988;-65
2023/03/08 02:29:31;;;;;;;;;;;;;;;4.98;97.32;96461.69;5077310;28;19992;-67
2023/03/08 02:31:58;;;;;;;;;;;;;;;5.04;98.24;96465.91;5080472;28;19984;-67
2023/03/08 02:34:24;;;;;;;;;;;;;;;5.00;98.85;96461.41;5080191;28;19935;-66
2023/03/08 02:36:50;;;;;;;;;;;;;;;4.93;98.66;96466.94;5080774;28;19963;-67
2023/03/08 02:39:17;;;;;;;;;;;;;;;4.84;98.97;96455.28;5078828;28;19993;-67
2023/03/08 02:41:44;;;;;;;;;;;;;;;4.94;98.19;96452.66;5077415;28;19959;-67
2023/03/08 02:44:11;;;;;;;;;;;;;;;4.92;97.94;96449.47;5078194;28;19971;-66
2023/03/08 02:46:37;;;;;;;;;;;;;;;4.94;97.98;96452.66;5080607;28;19988;-67
2023/03/08 02:49:03;;;;;;;;;;;;;;;4.93;97.79;96452.91;5080386;28;19963;-65
2023/03/08 02:51:30;;;;;;;;;;;;;;;4.94;98.49;96450.03;5077001;28;19980;-63
2023/03/08 02:53:56;;;;;;;;;;;;;;;4.90;98.99;96454.25;5077312;28;19991;-68
2023/03/08 02:56:22;;;;;;;;;;;;;;;4.99;98.78;96454.50;5079334;28;19995;-67
2023/03/08 02:58:50;;;;;;;;;;;;;;;4.88;98.31;96451.06;5080109;28;19959;-66
2023/03/08 03:01:16;;;;;;;;;;;;;;;4.89;98.58;96455.28;5081888;28;19988;-65
2023/03/08 03:03:43;;;;;;;;;;;;;;;4.90;98.46;96456.88;5076894;28;19920;-65
2023/03/08 03:06:13;;;;;;;;;;;;;;;4.98;98.38;96456.38;5077856;28;19962;-65
2023/03/08 03:08:39;;;;;;;;;;;;;;;5.00;98.52;96459.56;5080022;28;19956;-65
2023/03/08 03:11:10;;;;;;;;;;;;;;;5.00;97.54;96456.91;5079613;28;19987;-69
2023/03/08 03:13:36;;;;;;;;;;;;;;;4.98;98.13;96466.97;5076493;28;19980;-66
2023/03/08 03:16:06;;;;;;;;;;;;;;;5.00;99.18;96464.84;5076722;28;19960;-65
2023/03/08 03:18:33;;;;;;;;;;;;;;;5.02;99.18;96467.22;5068497;28;19952;-67
2023/03/08 03:21:02;;;;;;;;;;;;;;;4.95;99.40;96462.19;5068997;28;19959;-66
2023/03/08 03:23:29;;;;;;;;;;;;;;;5.06;98.85;96469.09;5076498;28;20555;-66
2023/03/08 03:25:55;;;;;;;;;;;;;;;5.06;98.95;96469.09;5076576;28;19988;-66
2023/03/08 03:28:21;;;;;;;;;;;;;;;5.05;98.50;96462.19;5078656;28;19996;-67
2023/03/08 03:30:48;;;;;;;;;;;;;;;5.02;98.94;96473.28;5083239;28;19921;-65
2023/03/08 03:33:15;;;;;;;;;;;;;;;5.06;98.53;96481.50;5078182;28;19925;-66
2023/03/08 03:35:42;;;;;;;;;;;;;;;5.07;98.95;96483.09;5076470;28;19947;-66
2023/03/08 03:38:08;;;;;;;;;;;;;;;5.06;99.43;96479.66;5075644;28;19984;-65
2023/03/08 03:40:34;;;;;;;;;;;;;;;5.01;99.27;96479.66;5079907;28;19955;-65
2023/03/08 03:43:01;;;;;;;;;;;;;;;4.99;98.48;96489.69;5079698;28;20026;-64
2023/03/08 03:45:27;;;;;;;;;;;;;;;4.99;98.75;96478.31;5058324;28;20000;-65
2023/03/08 03:47:53;;;;;;;;;;;;;;;5.06;98.91;96478.88;5076097;28;19993;-65
2023/03/08 03:50:21;;;;;;;;;;;;;;;5.07;99.00;96483.09;5078094;28;19971;-65
2023/03/08 03:52:47;;;;;;;;;;;;;;;5.08;98.48;96482.03;5079302;28;19930;-67
2023/03/08 03:55:14;;;;;;;;;;;;;;;5.07;99.32;96478.63;5077673;28;19952;-64
2023/03/08 03:57:41;;;;;;;;;;;;;;;5.00;99.14;96469.34;5075869;28;19971;-65
2023/03/08 04:00:08;;;;;;;;;;;;;;;5.00;99.55;96464.84;5079604;28;19929;-66
2023/03/08 04:02:34;;;;;;;;;;;;;;;5.00;100.00;96475.41;5079197;28;19996;-67
2023/03/08 04:05:01;;;;;;;;;;;;;;;5.01;99.56;96477.03;5079308;28;19959;-65
2023/03/08 04:07:28;;;;;;;;;;;;;;;5.04;99.25;96478.34;5075766;28;19993;-64
2023/03/08 04:09:55;;;;;;;;;;;;;;;5.03;99.52;96472.25;5075390;28;19988;-64
2023/03/08 04:12:21;;;;;;;;;;;;;;;4.97;99.92;96472.50;5078054;28;19960;-67
2023/03/08 04:14:47;;;;;;;;;;;;;;;4.99;100.00;96463.25;5078850;28;20681;-66
2023/03/08 04:17:14;;;;;;;;;;;;;;;5.02;99.89;96472.50;5077681;28;19948;-66
2023/03/08 04:19:40;;;;;;;;;;;;;;;5.02;99.85;96468.00;5075926;28;19988;-66
2023/03/08 04:22:06;;;;;;;;;;;;;;;4.95;99.75;96464.84;5057872;28;20113;-66
2023/03/08 04:24:34;;;;;;;;;;;;;;;4.86;100.00;96461.09;5078759;28;19924;-66
2023/03/08 04:27:00;;;;;;;;;;;;;;;4.88;99.97;96454.50;5078762;28;19952;-67
2023/03/08 04:29:27;;;;;;;;;;;;;;;4.90;99.69;96448.94;5075288;28;19995;-65
2023/03/08 04:31:57;;;;;;;;;;;;;;;4.94;100.00;96454.50;5078376;28;19967;-66
2023/03/08 04:34:23;;;;;;;;;;;;;;;4.96;99.98;96450.53;5077674;28;19920;-65
2023/03/08 04:36:49;;;;;;;;;;;;;;;4.90;99.98;96443.66;5078465;28;19980;-66
2023/03/08 04:39:16;;;;;;;;;;;;;;;4.85;100.00;96446.31;5076763;28;19992;-64
2023/03/08 04:41:43;;;;;;;;;;;;;;;4.87;100.00;96437.03;5074854;28;19924;-66
2023/03/08 04:44:10;;;;;;;;;;;;;;;4.87;100.00;96441.53;5074930;28;19997;-64
2023/03/08 04:46:36;;;;;;;;;;;;;;;4.91;100.00;96450.53;5078949;28;19996;-67
2023/03/08 04:49:02;;;;;;;;;;;;;;;4.93;99.95;96443.13;5078293;28;19979;-67
2023/03/08 04:51:28;;;;;;;;;;;;;;;4.85;99.96;96446.31;5065759;28;20463;-65
2023/03/08 04:53:55;;;;;;;;;;;;;;;4.94;99.54;96451.88;5066816;28;19992;-66
2023/03/08 04:56:21;;;;;;;;;;;;;;;4.89;99.94;96442.84;5066428;28;19980;-66
2023/03/08 04:58:49;;;;;;;;;;;;;;;4.90;100.00;96438.38;5066511;28;19959;-66
2023/03/08 05:01:16;;;;;;;;;;;;;;;4.86;100.00;96442.59;5078061;28;19920;-66
2023/03/08 05:03:43;;;;;;;;;;;;;;;4.77;100.00;96441.50;5074425;28;20068;-66
2023/03/08 05:06:10;;;;;;;;;;;;;;;4.78;100.00;96435.19;5075036;28;19980;-66
2023/03/08 05:08:36;;;;;;;;;;;;;;;4.84;100.00;96429.63;5077816;28;19928;-67
2023/03/08 05:11:03;;;;;;;;;;;;;;;4.87;100.00;96417.72;5077930;28;19925;-65
2023/03/08 05:13:31;;;;;;;;;;;;;;;4.90;100.00;96420.66;5065959;28;19928;-65
2023/03/08 05:15:59;;;;;;;;;;;;;;;4.93;100.00;96416.69;5066500;28;19963;-68
2023/03/08 05:18:25;;;;;;;;;;;;;;;4.84;98.69;96412.97;5048363;28;19980;-65
2023/03/08 05:20:55;;;;;;;;;;;;;;;4.70;100.00;96411.91;5065968;28;19925;-64
2023/03/08 05:23:21;;;;;;;;;;;;;;;4.76;99.78;96405.56;5066193;28;20000;-66
2023/03/08 05:25:51;;;;;;;;;;;;;;;4.65;100.00;96403.94;5065879;28;19992;-67
2023/03/08 05:28:17;;;;;;;;;;;;;;;4.64;100.00;96408.44;5048133;28;19971;-66
2023/03/08 05:30:44;;;;;;;;;;;;;;;4.72;100.00;96415.06;5074660;28;19931;-66
2023/03/08 05:33:12;;;;;;;;;;;;;;;4.62;100.00;96409.75;5076633;28;19996;-66
2023/03/08 05:35:38;;;;;;;;;;;;;;;4.71;100.00;96397.59;5056206;28;19967;-65
2023/03/08 05:38:04;;;;;;;;;;;;;;;4.68;100.00;96379.63;5074109;28;20099;-65
2023/03/08 05:40:31;;;;;;;;;;;;;;;4.69;100.00;96391.78;5059496;28;19925;-67
2023/03/08 05:42:57;;;;;;;;;;;;;;;4.65;99.97;96398.66;5077310;28;20007;-65
2023/03/08 05:45:23;;;;;;;;;;;;;;;4.62;100.00;96388.59;5056679;28;19991;-65
2023/03/08 05:47:50;;;;;;;;;;;;;;;4.67;100.00;96391.28;5072812;28;19943;-66
2023/03/08 05:50:18;;;;;;;;;;;;;;;4.78;100.00;96387.56;5076063;28;20007;-67
2023/03/08 05:52:45;;;;;;;;;;;;;;;4.68;100.00;96384.91;5077350;28;20817;-66
2023/03/08 05:55:12;;;;;;;;;;;;;;;4.69;100.00;96371.44;5076092;28;19924;-65
2023/03/08 05:57:38;;;;;;;;;;;;;;;4.72;100.00;96375.41;5073901;28;19936;-67
2023/03/08 06:00:05;;;;;;;;;;;;;;;4.64;100.00;96368.00;5077626;28;19944;-66
2023/03/08 06:02:31;;;;;;;;;;;;;;;4.30;99.95;96378.25;5076690;28;19955;-66
2023/03/08 06:04:57;;;;;;;;;;;;;;;4.15;100.00;96372.88;5059250;28;20456;-64
2023/03/08 06:07:25;;;;;;;;;;;;;;;3.98;100.00;96381.03;5074479;28;19967;-67
2023/03/08 06:09:52;;;;;;;;;;;;;;;4.02;100.00;96374.19;5074262;28;19936;-65
2023/03/08 06:12:18;;;;;;;;;;;;;;;4.02;100.00;96378.66;5074140;28;19929;-67
2023/03/08 06:14:44;;;;;;;;;;;;;;;4.06;100.00;96372.59;5059513;28;19948;-68
2023/03/08 06:17:11;;;;;;;;;;;;;;;3.97;100.00;96376.78;5058464;28;19974;-64
2023/03/08 06:19:37;;;;;;;;;;;;;;;3.92;100.00;96384.69;5073601;28;20004;-67
2023/03/08 06:22:03;;;;;;;;;;;;;;;3.93;100.00;96385.50;5056051;28;20458;-67
2023/03/08 06:24:31;;;;;;;;;;;;;;;3.86;100.00;96393.66;5065291;28;19987;-66
2023/03/08 06:26:58;;;;;;;;;;;;;;;3.85;100.00;96393.91;5064967;28;19956;-66
2023/03/08 06:29:25;;;;;;;;;;;;;;;3.86;100.00;96393.66;5065241;28;19948;-66
2023/03/08 06:31:51;;;;;;;;;;;;;;;3.94;100.00;96403.72;5076915;28;20367;-65
2023/03/08 06:34:17;;;;;;;;;;;;;;;3.98;100.00;96415.38;5075462;28;19924;-65
2023/03/08 06:36:44;;;;;;;;;;;;;;;4.04;100.00;96414.34;5076878;28;20010;-67
2023/03/08 06:39:10;;;;;;;;;;;;;;;3.94;100.00;96410.84;5075842;28;19974;-67
2023/03/08 06:41:38;;;;;;;;;;;;;;;3.94;100.00;96410.84;5073398;28;19929;-66
2023/03/08 06:44:04;;;;;;;;;;;;;;;3.84;100.00;96422.13;5073458;28;19984;-67
2023/03/08 06:46:31;;;;;;;;;;;;;;;3.77;100.00;96422.41;5076393;28;19931;-66
2023/03/08 06:48:57;;;;;;;;;;;;;;;3.86;100.00;96427.19;5076883;28;19978;-67
2023/03/08 06:51:23;;;;;;;;;;;;;;;3.88;100.00;96425.06;5073934;28;19959;-65
2023/03/08 06:53:50;;;;;;;;;;;;;;;3.96;100.00;96428.00;5073083;28;19921;-65
2023/03/08 06:56:16;;;;;;;;;;;;;;;3.99;100.00;96419.56;5074915;28;19963;-67
2023/03/08 06:58:44;;;;;;;;;;;;;;;3.93;100.00;96415.31;5076590;28;20464;-64
2023/03/08 07:01:12;;;;;;;;;;;;;;;3.79;100.00;96414.19;5079199;28;19925;-68
2023/03/08 07:03:38;;;;;;;;;;;;;;;3.73;100.00;96409.94;5073201;28;19997;-65
2023/03/08 07:06:06;;;;;;;;;;;;;;;3.79;100.00;96412.38;5073810;28;19963;-66
2023/03/08 07:08:32;;;;;;;;;;;;;;;3.75;100.00;96415.75;5076702;28;19943;-67
2023/03/08 07:10:58;;;;;;;;;;;;;;;3.69;100.00;96417.59;5076609;28;19932;-65
2023/03/08 07:13:25;;;;;;;;;;;;;;;3.68;100.00;96417.84;5057717;28;20000;-66
2023/03/08 07:15:53;;;;;;;;;;;;;;;3.71;100.00;96420.75;5076612;28;20011;-65
2023/03/08 07:18:20;;;;;;;;;;;;;;;3.68;100.00;96417.84;5078770;28;19996;-65
2023/03/08 07:20:51;;;;;;;;;;;;;;;3.68;100.00;96418.63;5079751;28;20189;-65
2023/03/08 07:23:17;;;;;;;;;;;;;;;3.69;100.00;96416.78;5078049;28;19975;-64
2023/03/08 07:25:43;;;;;;;;;;;;;;;3.68;100.00;96415.22;5076578;28;20019;-65
2023/03/08 07:28:10;;;;;;;;;;;;;;;3.72;100.00;96413.63;5077530;28;19928;-66
2023/03/08 07:30:36;;;;;;;;;;;;;;;3.74;100.00;96408.91;5065451;28;19962;-65
2023/03/08 07:33:04;;;;;;;;;;;;;;;3.78;100.00;96404.69;5080183;28;19975;-66
2023/03/08 07:35:30;;;;;;;;;;;;;;;3.77;100.00;96405.75;5076580;28;19993;-64
2023/03/08 07:37:56;;;;;;;;;;;;;;;3.75;100.00;96406.00;5058416;28;19925;-63
2023/03/08 07:40:23;;;;;;;;;;;;;;;3.87;100.00;96412.94;5078968;28;19924;-65
2023/03/08 07:42:49;;;;;;;;;;;;;;;3.94;100.00;96409.00;5062035;28;19925;-66
2023/03/08 07:45:15;;;;;;;;;;;;;;;4.05;100.00;96410.66;5078013;28;20011;-65
2023/03/08 07:47:42;;;;;;;;;;;;;;;4.20;100.00;96408.06;5076062;28;19924;-66
2023/03/08 07:50:11;;;;;;;;;;;;;;;4.09;100.00;96397.69;5076981;28;19964;-65
2023/03/08 07:52:37;;;;;;;;;;;;;;;4.05;100.00;96392.16;5079946;28;20016;-67
2023/03/08 07:55:04;;;;;;;;;;;;;;;3.97;100.00;96394.47;5079562;28;19959;-66
2023/03/08 07:57:30;;;;;;;;;;;;;;;3.91;100.00;96388.38;5075759;28;19936;-66
2023/03/08 07:59:56;;;;;;;;;;;;;;;3.86;100.00;96388.38;5078403;28;20584;-67
2023/03/08 08:02:23;;;;;;;;;;;;;;;3.84;100.00;96387.81;5079486;28;20314;-69
2023/03/08 08:04:49;;;;;;;;;;;;;;;3.86;100.00;96377.81;5061890;28;19995;-67
2023/03/08 08:07:17;;;;;;;;;;;;;;;3.91;100.00;96374.38;5077910;28;19932;-65
2023/03/08 08:09:43;;;;;;;;;;;;;;;3.98;100.00;96372.31;5075830;28;20027;-67
2023/03/08 08:12:10;;;;;;;;;;;;;;;4.09;100.00;96374.72;5058699;28;19921;-64
2023/03/08 08:14:36;;;;;;;;;;;;;;;4.06;100.00;96367.31;5061146;28;20019;-65
2023/03/08 08:17:02;;;;;;;;;;;;;;;4.11;100.00;96383.19;5079405;28;19995;-65
2023/03/08 08:19:30;;;;;;;;;;;;;;;4.17;100.00;96384.81;5075647;28;19985;-66
2023/03/08 08:21:57;;;;;;;;;;;;;;;4.14;100.00;96377.41;5075593;28;19929;-65
2023/03/08 08:24:24;;;;;;;;;;;;;;;4.09;100.00;96369.44;5059733;28;19960;-65
2023/03/08 08:26:51;;;;;;;;;;;;;;;4.15;100.00;96364.97;5078976;28;20345;-69
2023/03/08 08:29:17;;;;;;;;;;;;;;;4.21;100.00;96354.16;5076961;28;19920;-65
2023/03/08 08:31:43;;;;;;;;;;;;;;;4.32;100.00;96354.97;5078935;28;20074;-66
2023/03/08 08:34:10;;;;;;;;;;;;;;;4.32;100.00;96354.97;5075907;28;19985;-67
2023/03/08 08:36:36;;;;;;;;;;;;;;;4.42;100.00;96348.94;5079127;28;19991;-67
2023/03/08 08:39:03;;;;;;;;;;;;;;;4.51;100.00;96345.50;5078772;28;19932;-66
2023/03/08 08:41:31;;;;;;;;;;;;;;;4.53;100.00;96338.09;5075197;28;20591;-65
2023/03/08 08:43:58;;;;;;;;;;;;;;;4.63;100.00;96337.31;5075264;28;19976;-65
2023/03/08 08:46:26;;;;;;;;;;;;;;;4.66;100.00;96340.25;5078074;28;19928;-66
2023/03/08 08:48:53;;;;;;;;;;;;;;;6.85;100.00;96339.25;5079158;28;20503;-66
2023/03/08 08:51:19;;;;;;;;;;;;;;;7.39;100.00;96344.38;5076241;28;19989;-66
2023/03/08 08:53:46;;;;;;;;;;;;;;;7.75;100.00;96334.16;5074980;28;20020;-66
2023/03/08 08:56:13;;;;;;;;;;;;;;;8.17;100.00;96320.13;5074869;28;19924;-66
2023/03/08 08:58:41;;;;;;;;;;;;;;;8.29;100.00;96310.66;5078290;28;19928;-66
2023/03/08 09:01:12;;;;;;;;;;;;;;;8.44;98.31;96307.78;5081428;28;19963;-66
2023/03/08 09:03:39;;;;;;;;;;;;;;;8.60;97.20;96295.06;5075064;28;19925;-67
2023/03/08 09:06:05;;;;;;;;;;;;;;;8.11;97.36;96292.78;5074946;28;20386;-67
2023/03/08 09:08:32;;;;;;;;;;;;;;;7.19;100.00;96289.59;5060256;28;19984;-65
2023/03/08 09:11:02;;;;;;;;;;;;;;;6.93;100.00;96293.56;5078314;28;19921;-67
2023/03/08 09:13:28;;;;;;;;;;;;;;;6.38;100.00;96290.25;5074867;28;19925;-65
2023/03/08 09:15:56;;;;;;;;;;;;;;;6.32;100.00;96280.75;5074762;28;19931;-66
2023/03/08 09:18:23;;;;;;;;;;;;;;;6.21;100.00;96284.53;5076983;28;20401;-65
2023/03/08 09:20:49;;;;;;;;;;;;;;;5.91;100.00;96274.13;5078208;28;19981;-66
2023/03/08 09:23:15;;;;;;;;;;;;;;;5.83;100.00;96261.41;5076560;28;19936;-66
2023/03/08 09:25:42;;;;;;;;;;;;;;;5.89;100.00;96253.19;5074339;28;19972;-65
2023/03/08 09:28:09;;;;;;;;;;;;;;;5.65;100.00;96259.38;5075262;28;19925;-65
2023/03/08 09:30:35;;;;;;;;;;;;;;;5.47;100.00;96255.47;5081582;28;19935;-65
2023/03/08 09:33:03;;;;;;;;;;;;;;;5.53;100.00;96248.28;5078185;28;19928;-66
2023/03/08 09:35:29;;;;;;;;;;;;;;;5.45;100.00;96255.72;5073903;28;19921;-65
2023/03/08 09:37:56;;;;;;;;;;;;;;;5.42;100.00;96242.22;5073852;28;19935;-68
2023/03/08 09:40:24;;;;;;;;;;;;;;;5.38;100.00;96239.31;5076489;28;20004;-66
2023/03/08 09:42:50;;;;;;;;;;;;;;;5.44;100.00;96225.03;5059682;28;20608;-67
2023/03/08 09:45:24;;;;;;;;;;;;;;;5.50;100.00;96228.47;5075819;28;19924;-67
2023/03/08 09:47:53;;;;;;;;;;;;;;;5.48;100.00;96211.25;5073986;28;19993;-67
2023/03/08 09:50:31;;;;;;;;;;;;;;;5.46;100.00;96203.56;5076070;28;19956;-66
2023/03/08 09:52:59;;;;;;;;;;;;;;;5.38;100.00;96202.28;5077579;28;19956;-67
2023/03/08 09:55:29;;;;;;;;;;;;;;;5.37;100.00;96200.72;5074456;28;19952;-66
2023/03/08 09:57:56;;;;;;;;;;;;;;;5.44;100.00;96195.13;5074059;28;19932;-66
2023/03/08 10:00:26;;;;;;;;;;;;;;;5.53;100.00;96182.91;5080110;28;19925;-66
2023/03/08 10:03:01;;;;;;;;;;;;;;;5.57;100.00;96188.44;5077431;28;19982;-67
2023/03/08 10:05:34;;;;;;;;;;;;;;;5.38;100.00;96186.41;5074089;28;19952;-66
2023/03/08 10:08:04;;;;;;;;;;;;;;;5.23;100.00;96183.81;5073779;28;19971;-65
2023/03/08 10:10:36;;;;;;;;;;;;;;;5.26;100.00;96170.03;5073815;28;19924;-65
2023/03/08 10:13:07;;;;;;;;;;;;;;;5.20;100.00;96167.72;5072366;28;19929;-65
2023/03/08 10:15:36;;;;;;;;;;;;;;;5.16;100.00;96154.22;5073930;28;19925;-66
2023/03/08 10:18:05;;;;;;;;;;;;;;;4.92;100.00;96140.00;5073864;28;19955;-65
2023/03/08 10:20:36;;;;;;;;;;;;;;;4.99;100.00;96135.22;5072636;28;20311;-66
2023/03/08 10:23:06;;;;;;;;;;;;;;;4.96;100.00;96135.78;5055542;28;19956;-67
2023/03/08 10:25:33;;;;;;;;;;;;;;;4.84;100.00;96117.56;5072590;28;19925;-66
2023/03/08 10:28:00;;;;;;;;;;;;;;;4.76;100.00;96125.28;5073537;28;20011;-68
2023/03/08 10:30:28;;;;;;;;;;;;;;;4.78;100.00;96129.22;5080169;28;20566;-66
2023/03/08 10:32:57;;;;;;;;;;;;;;;4.64;100.00;96138.00;5076928;28;19956;-67
2023/03/08 10:35:36;;;;;;;;;;;;;;;4.62;100.00;96134.81;5074052;28;19978;-68
2023/03/08 10:38:03;;;;;;;;;;;;;;;4.55;100.00;96126.38;5073423;28;19928;-67
2023/03/08 10:40:29;;;;;;;;;;;;;;;4.56;100.00;96120.81;5077081;28;19989;-66
2023/03/08 10:42:59;;;;;;;;;;;;;;;4.75;100.00;96121.03;5076931;28;19959;-66
2023/03/08 10:45:27;;;;;;;;;;;;;;;4.79;100.00;96124.72;5074010;28;19924;-66
2023/03/08 10:47:55;;;;;;;;;;;;;;;4.72;100.00;96129.50;5075267;28;19960;-66
2023/03/08 10:50:22;;;;;;;;;;;;;;;4.87;100.00;96129.47;5079666;28;19925;-66
2023/03/08 10:52:50;;;;;;;;;;;;;;;4.94;100.00;96122.03;5080656;28;19988;-66
2023/03/08 10:55:18;;;;;;;;;;;;;;;4.75;100.00;96135.06;5078892;28;20015;-67
2023/03/08 10:57:49;;;;;;;;;;;;;;;4.80;100.00;96139.53;5077218;28;19988;-66
2023/03/08 11:00:32;;;;;;;;;;;;;;;4.85;100.00;96134.22;5082105;28;20014;-68
2023/03/08 11:03:02;;;;;;;;;;;;;;;4.67;100.00;96126.88;5080634;28;19930;-68
2023/03/08 11:05:28;;;;;;;;;;;;;;;4.34;100.00;96118.47;5077161;28;19925;-65
2023/03/08 11:07:58;;;;;;;;;;;;;;;4.33;100.00;96118.75;5077003;28;20413;-66
2023/03/08 11:10:25;;;;;;;;;;;;;;;4.23;100.00;96111.63;5079701;28;19952;-65
2023/03/08 11:13:00;;;;;;;;;;;;;;;4.24;100.00;96126.41;5080588;28;19925;-66
2023/03/08 11:15:29;;;;;;;;;;;;;;;4.40;100.00;96123.75;5076983;28;19979;-65
2023/03/08 11:18:00;;;;;;;;;;;;;;;4.38;100.00;96120.59;5075670;28;19925;-66
2023/03/08 11:20:28;;;;;;;;;;;;;;;4.32;100.00;96110.03;5079763;28;19925;-66
2023/03/08 11:23:02;;;;;;;;;;;;;;;4.13;100.00;96111.66;5079914;28;19935;-68
2023/03/08 11:25:34;;;;;;;;;;;;;;;4.14;100.00;96110.59;5076662;28;19925;-65
2023/03/08 11:28:07;;;;;;;;;;;;;;;4.13;100.00;96100.28;5076369;28;19964;-66
2023/03/08 11:30:38;;;;;;;;;;;;;;;3.96;100.00;96095.25;5080456;28;19972;-68
2023/03/08 11:33:35;;;;;;;;;;;;;;;3.88;100.00;96098.44;5079916;28;19957;-66
2023/03/08 11:36:05;;;;;;;;;;;;;;;3.92;100.00;96098.72;4994721;28;19937;-69
2023/03/08 11:38:35;;;;;;;;;;;;;;;3.82;100.00;96094.22;5058780;28;19989;-66
2023/03/08 11:41:06;;;;;;;;;;;;;;;3.84;100.00;96094.75;5076191;28;19925;-64
2023/03/08 11:43:45;;;;;;;;;;;;;;;3.77;100.00;96086.31;5076078;28;19929;-68
2023/03/08 11:46:15;;;;;;;;;;;;;;;3.90;100.00;96090.28;5077245;28;19925;-68
2023/03/08 11:48:51;;;;;;;;;;;;;;;3.84;100.00;96081.53;5079691;28;19928;-65
2023/03/08 11:51:21;;;;;;;;;;;;;;;3.94;100.00;96080.75;5077727;28;19935;-65
2023/03/08 11:53:55;;;;;;;;;;;;;;;3.97;100.00;96080.22;5076161;28;19925;-66
2023/03/08 11:56:31;;;;;;;;;;;;;;;3.97;100.00;96074.94;5078154;28;19992;-65
2023/03/08 11:59:00;;;;;;;;;;;;;;;3.99;100.00;96078.88;5078935;28;19920;-67
2023/03/08 12:01:29;;;;;;;;;;;;;;;4.02;100.00;96073.09;5062141;28;19975;-67
2023/03/08 12:03:59;;;;;;;;;;;;;;;3.99;100.00;96068.31;5074731;28;19948;-67
2023/03/08 12:06:27;;;;;;;;;;;;;;;4.02;100.00;96072.31;5060818;28;20829;-66
2023/03/08 12:08:57;;;;;;;;;;;;;;;4.12;100.00;96059.88;5061291;28;19920;-65
2023/03/08 12:11:26;;;;;;;;;;;;;;;4.23;100.00;96063.28;5076463;28;19931;-66
2023/03/08 12:13:55;;;;;;;;;;;;;;;4.32;100.00;96062.47;5057845;28;19956;-65
2023/03/08 12:16:23;;;;;;;;;;;;;;;4.33;100.00;96050.06;5077826;28;19971;-65
2023/03/08 12:18:53;;;;;;;;;;;;;;;4.44;100.00;96048.16;5079480;28;19973;-65
2023/03/08 12:21:27;;;;;;;;;;;;;;;4.51;100.00;96043.41;5076839;28;19979;-67
2023/03/08 12:23:59;;;;;;;;;;;;;;;4.51;100.00;96038.91;5075732;28;19924;-65
2023/03/08 12:26:29;;;;;;;;;;;;;;;4.54;100.00;96035.72;5078363;28;19936;-67
2023/03/08 12:28:57;;;;;;;;;;;;;;;4.60;100.00;96033.84;5078959;28;19920;-67
2023/03/08 12:31:25;;;;;;;;;;;;;;;4.56;100.00;96027.50;5080228;28;19998;-67
2023/03/08 12:33:52;;;;;;;;;;;;;;;4.48;100.00;96018.31;5075573;28;19960;-65
2023/03/08 12:36:21;;;;;;;;;;;;;;;4.54;100.00;96016.44;5059296;28;19925;-67
2023/03/08 12:38:54;;;;;;;;;;;;;;;4.57;100.00;96011.41;5079023;28;19947;-67
2023/03/08 12:41:23;;;;;;;;;;;;;;;4.51;100.00;96023.06;5076568;28;19931;-65
2023/03/08 12:43:58;;;;;;;;;;;;;;;4.53;100.00;95999.78;5075358;28;19996;-67
2023/03/08 12:46:25;;;;;;;;;;;;;;;4.51;100.00;96007.19;5078048;28;19986;-66
2023/03/08 12:48:52;;;;;;;;;;;;;;;4.58;100.00;96015.59;5078589;28;19924;-68
2023/03/08 12:51:25;;;;;;;;;;;;;;;4.53;100.00;96001.63;5058995;28;19924;-68
2023/03/08 12:54:01;;;;;;;;;;;;;;;4.54;100.00;95995.28;5075247;28;19931;-66